Welch, Minnesota
Current Conditions -  °F | °C
As of 1:11 PM on Sunday 21 Dec 2014 (Local Time) from KRGK Reporting Station
Drizzle Drizzle  
Wind Chill: 32°   Ceiling: 800
Heat Index: 37°   Visibility: 2mi
Dew Point: 36°   Wind: 7mph
Humidity: 93%   Direction: 180°S
Pressure: 29.81"   Gusts: NA
Location:  44.57°N, 92.74°W
Report Text: KRGK 211911Z AUTO 18006KT 2SM DZ OVC008 03/02 A2981 RMK AO2
Loading
Personal Weather Stations






























Interactive Weather Map New forecast layout! Learn more

10-Day Weather Forecast

Advertisements
Track Severe Weather on mobile